createdAt,value
2022-11-28T00:03:47.353Z,100596.44
2022-11-28T00:09:13.316Z,100586.88
2022-11-28T00:14:39.341Z,100584.47
2022-11-28T00:20:03.587Z,100585.59
2022-11-28T00:25:33.694Z,100577.97
2022-11-28T00:30:57.464Z,100570.44
2022-11-28T00:36:38.485Z,100560.53
2022-11-28T00:42:07.593Z,100562.44
2022-11-28T00:47:31.498Z,100565.22
2022-11-28T00:53:01.271Z,100560.41
2022-11-28T00:58:27.216Z,100556.97
2022-11-28T01:03:56.880Z,100554.38
2022-11-28T01:09:24.687Z,100541.25
2022-11-28T01:14:50.045Z,100544.66
2022-11-28T01:20:17.535Z,100546.53
2022-11-28T01:25:40.830Z,100535.16
2022-11-28T01:31:10.903Z,100537.56
2022-11-28T01:36:35.656Z,100526.25
2022-11-28T01:42:07.658Z,100519.16
2022-11-28T01:47:37.977Z,100508.59
2022-11-28T01:53:07.577Z,100503.03
2022-11-28T01:58:36.692Z,100503.56
2022-11-28T02:04:07.127Z,100482.00
2022-11-28T02:09:33.636Z,100479.41
2022-11-28T02:15:20.234Z,100469.81
2022-11-28T02:21:12.359Z,100457.94
2022-11-28T02:27:23.113Z,100446.34
2022-11-28T02:33:15.829Z,100428.28
2022-11-28T02:39:03.901Z,100428.75
2022-11-28T02:44:36.736Z,100425.63
2022-11-28T02:50:21.170Z,100426.81
2022-11-28T02:55:49.033Z,100417.44
2022-11-28T03:01:23.736Z,100413.78
2022-11-28T03:07:01.054Z,100413.56
2022-11-28T03:12:39.766Z,100402.34
2022-11-28T03:18:15.247Z,100396.16
2022-11-28T03:23:48.386Z,100383.59
2022-11-28T03:29:17.601Z,100373.84
2022-11-28T03:34:58.901Z,100374.78
2022-11-28T03:40:35.005Z,100368.59
2022-11-28T03:46:03.019Z,100370.44
2022-11-28T03:51:42.318Z,100367.72
2022-11-28T03:57:17.618Z,100359.03
2022-11-28T04:02:52.310Z,100353.09
2022-11-28T04:08:23.844Z,100339.41
2022-11-28T04:14:01.731Z,100334.16
2022-11-28T04:19:59.697Z,100327.31
2022-11-28T04:25:33.851Z,100324.44
2022-11-28T04:31:11.226Z,100334.69
2022-11-28T04:36:38.178Z,100319.78
2022-11-28T04:42:14.779Z,100324.56
2022-11-28T04:47:43.152Z,100314.84
2022-11-28T04:53:16.348Z,100313.00
2022-11-28T04:58:57.446Z,100305.88
2022-11-28T05:04:43.801Z,100293.91
2022-11-28T05:10:15.152Z,100282.53
2022-11-28T05:15:39.511Z,100262.72
2022-11-28T05:21:11.203Z,100256.69
2022-11-28T05:26:39.613Z,100255.53
2022-11-28T05:32:13.044Z,100291.03
2022-11-28T05:38:09.388Z,100293.22
2022-11-28T05:43:37.726Z,100299.66
2022-11-28T05:49:11.351Z,100292.31
2022-11-28T05:54:38.518Z,100284.03
2022-11-28T06:00:03.778Z,100308.84
2022-11-28T06:05:44.224Z,100289.03
2022-11-28T06:11:11.453Z,100272.22
2022-11-28T06:16:36.505Z,100264.22
2022-11-28T06:22:17.065Z,100264.88
2022-11-28T06:27:53.462Z,100264.44
2022-11-28T06:33:28.583Z,100275.59
2022-11-28T06:38:57.902Z,100273.94
2022-11-28T06:44:37.744Z,100276.53
2022-11-28T06:50:19.035Z,100278.19
2022-11-28T06:55:47.471Z,100277.88
2022-11-28T07:01:31.103Z,100262.19
2022-11-28T07:06:57.430Z,100252.53
2022-11-28T07:12:22.972Z,100262.84
2022-11-28T07:18:01.829Z,100258.25
2022-11-28T07:23:26.166Z,100259.72
2022-11-28T07:28:56.474Z,100251.59
2022-11-28T07:34:22.070Z,100256.06
2022-11-28T07:39:53.021Z,100251.41
2022-11-28T07:45:17.980Z,100232.59
2022-11-28T07:50:57.087Z,100226.25
2022-11-28T08:02:16.055Z,100223.16
2022-11-28T08:07:48.399Z,100216.06
2022-11-28T08:13:14.759Z,100220.47
2022-11-28T08:18:42.810Z,100211.81
2022-11-28T08:24:17.303Z,100214.00
2022-11-28T08:29:52.129Z,100217.84
2022-11-28T08:35:25.124Z,100220.56
2022-11-28T08:40:53.025Z,100217.53
2022-11-28T08:46:36.177Z,100222.94
2022-11-28T08:52:00.172Z,100224.00
2022-11-28T08:57:27.295Z,100227.84
2022-11-28T09:02:56.964Z,100226.16
2022-11-28T09:08:26.742Z,100242.69
2022-11-28T09:13:54.425Z,100241.31
2022-11-28T09:19:31.792Z,100240.78
2022-11-28T09:24:57.759Z,100231.84
2022-11-28T09:30:27.156Z,100238.16
2022-11-28T09:35:58.875Z,100227.50
2022-11-28T09:41:42.131Z,100235.31
2022-11-28T09:47:27.862Z,100235.47
2022-11-28T09:53:05.484Z,100237.38
2022-11-28T09:58:44.012Z,100244.75
2022-11-28T10:04:26.454Z,100242.22
2022-11-28T10:10:09.547Z,100236.69
2022-11-28T10:15:48.243Z,100234.06
2022-11-28T10:21:38.029Z,100233.38
2022-11-28T10:27:07.145Z,100233.06
2022-11-28T10:32:36.024Z,100210.81
2022-11-28T10:43:51.153Z,100205.38
2022-11-28T10:49:39.126Z,100207.81
2022-11-28T10:55:32.565Z,100211.75
2022-11-28T11:01:08.545Z,100197.41
2022-11-28T11:12:30.386Z,100199.13
2022-11-28T11:18:11.473Z,100207.06
2022-11-28T11:23:49.898Z,100201.75
2022-11-28T11:29:34.745Z,100189.44
2022-11-28T11:35:02.622Z,100178.31
2022-11-28T11:40:31.274Z,100177.69
2022-11-28T11:46:12.874Z,100173.19
2022-11-28T11:51:48.364Z,100167.66
2022-11-28T11:57:39.282Z,100158.03
2022-11-28T12:03:24.139Z,100162.91
2022-11-28T12:09:02.003Z,100161.72
2022-11-28T12:14:32.364Z,100159.13
2022-11-28T12:20:23.247Z,100161.13
2022-11-28T12:26:02.573Z,100160.78
2022-11-28T12:31:39.648Z,100156.88
2022-11-28T12:37:18.322Z,100154.13
2022-11-28T12:43:05.711Z,100155.09
2022-11-28T12:48:53.452Z,100160.66
2022-11-28T12:55:05.488Z,100152.47
2022-11-28T13:00:33.027Z,100153.41
2022-11-28T13:06:20.070Z,100154.13
2022-11-28T13:11:57.142Z,100160.19
2022-11-28T13:17:37.147Z,100156.38
2022-11-28T13:23:12.805Z,100145.84
2022-11-28T13:28:46.084Z,100147.38
2022-11-28T13:34:21.680Z,100139.19
2022-11-28T13:39:49.850Z,100138.50
2022-11-28T13:45:30.078Z,100146.31
2022-11-28T13:51:30.587Z,100133.78
2022-11-28T13:57:13.956Z,100138.84
2022-11-28T14:02:48.520Z,100123.00
2022-11-28T14:08:39.217Z,100112.44
2022-11-28T14:14:20.857Z,100118.84
2022-11-28T14:20:15.509Z,100124.16
2022-11-28T14:25:49.752Z,100122.66
2022-11-28T14:31:40.572Z,100122.66
2022-11-28T14:38:02.293Z,100116.00
2022-11-28T14:43:47.723Z,100118.50
2022-11-28T14:49:24.986Z,100134.00
2022-11-28T15:00:37.372Z,100132.97
2022-11-28T15:06:20.180Z,100143.59
2022-11-28T15:12:10.905Z,100147.28
2022-11-28T15:17:56.014Z,100146.69
2022-11-28T15:23:37.554Z,100142.78
2022-11-28T15:29:22.193Z,100152.47
2022-11-28T15:34:57.781Z,100144.91
2022-11-28T15:40:32.806Z,100151.66
2022-11-28T15:46:04.106Z,100148.22
2022-11-28T15:51:38.186Z,100143.00
2022-11-28T15:57:09.466Z,100148.69
2022-11-28T16:02:46.888Z,100149.75
2022-11-28T16:08:34.414Z,100148.44
2022-11-28T16:14:02.461Z,100146.06
2022-11-28T16:19:32.467Z,100146.78
2022-11-28T16:25:00.161Z,100139.09
2022-11-28T16:30:52.802Z,100145.25
2022-11-28T16:36:27.043Z,100149.72
2022-11-28T16:41:55.207Z,100146.31
2022-11-28T16:47:40.017Z,100143.72
2022-11-28T16:53:04.852Z,100144.53
2022-11-28T16:58:32.980Z,100144.75
2022-11-28T17:04:02.504Z,100148.31
2022-11-28T17:09:26.994Z,100149.41
2022-11-28T17:14:57.786Z,100147.72
2022-11-28T17:20:20.666Z,100145.25
2022-11-28T17:25:58.211Z,100145.59
2022-11-28T17:31:26.702Z,100137.25
2022-11-28T17:37:03.487Z,100143.41
2022-11-28T17:42:30.030Z,100155.00
2022-11-28T17:48:01.566Z,100156.78
2022-11-28T17:53:27.779Z,100149.44
2022-11-28T17:58:54.318Z,100150.38
2022-11-28T18:04:21.492Z,100153.41
2022-11-28T18:09:53.208Z,100146.09
2022-11-28T18:15:17.202Z,100148.56
2022-11-28T18:20:41.817Z,100152.22
2022-11-28T18:26:09.058Z,100157.31
2022-11-28T18:31:46.060Z,100159.31
2022-11-28T18:37:13.069Z,100163.19
2022-11-28T18:42:36.344Z,100168.50
2022-11-28T18:48:02.467Z,100161.78
2022-11-28T18:53:26.923Z,100157.16
2022-11-28T18:59:05.827Z,100160.59
2022-11-28T19:04:33.697Z,100164.16
2022-11-28T19:10:01.425Z,100165.09
2022-11-28T19:15:28.993Z,100159.66
2022-11-28T19:21:01.984Z,100171.94
2022-11-28T19:26:42.663Z,100176.94
2022-11-28T19:32:06.590Z,100169.97
2022-11-28T19:37:33.524Z,100175.16
2022-11-28T19:43:09.442Z,100169.97
2022-11-28T19:48:42.921Z,100165.31
2022-11-28T19:54:08.641Z,100172.38
2022-11-28T20:05:28.496Z,100183.03
2022-11-28T20:11:12.572Z,100184.81
2022-11-28T20:16:43.301Z,100180.66
2022-11-28T20:22:13.119Z,100190.09
2022-11-28T20:27:45.199Z,100189.06
2022-11-28T20:33:33.291Z,100195.09
2022-11-28T20:39:00.429Z,100193.44
2022-11-28T20:44:43.028Z,100196.38
2022-11-28T20:50:21.460Z,100196.25
2022-11-28T20:55:50.458Z,100195.53
2022-11-28T21:01:30.664Z,100195.53
2022-11-28T21:06:59.236Z,100194.59
2022-11-28T21:12:41.053Z,100198.63
2022-11-28T21:18:45.905Z,100192.94
2022-11-28T21:24:24.104Z,100190.34
2022-11-28T21:29:51.616Z,100195.78
2022-11-28T21:35:16.721Z,100191.28
2022-11-28T21:40:51.725Z,100196.00
2022-11-28T21:46:29.117Z,100194.44
2022-11-28T21:52:03.138Z,100196.09
2022-11-28T21:57:28.376Z,100198.94
2022-11-28T22:02:58.231Z,100195.59
2022-11-28T22:08:45.860Z,100186.56
2022-11-28T22:14:11.133Z,100177.72
2022-11-28T22:19:38.450Z,100195.00
2022-11-28T22:25:15.922Z,100187.69
2022-11-28T22:30:47.074Z,100193.50
2022-11-28T22:36:21.492Z,100195.28
2022-11-28T22:41:51.923Z,100193.72
2022-11-28T22:47:31.366Z,100193.50
2022-11-28T22:53:09.310Z,100194.09
2022-11-28T22:58:39.348Z,100193.41
2022-11-28T23:04:28.102Z,100193.41
2022-11-28T23:10:00.416Z,100195.88
2022-11-28T23:15:26.899Z,100201.28
2022-11-28T23:21:02.222Z,100198.81
2022-11-28T23:26:28.363Z,100201.63
2022-11-28T23:31:57.542Z,100206.09
2022-11-28T23:37:29.797Z,100208.47
2022-11-28T23:42:57.561Z,100205.16
2022-11-28T23:48:27.806Z,100207.66
2022-11-28T23:54:10.327Z,100209.56
2022-11-28T23:59:45.583Z,100217.44
